sensor_id;sensor_type;location;lat;lon;timestamp;pressure;altitude;pressure_sealevel;temperature;humidity
54459;BME280;40368;49.350;8.152;2022-10-30T00:00:04;1005.1;;;19.9;58.98
54459;BME280;40368;49.350;8.152;2022-10-30T00:01:03;1005.1;;;19.87;59.01
54459;BME280;40368;49.350;8.152;2022-10-30T00:02:03;1005;;;19.89;59.07
54459;BME280;40368;49.350;8.152;2022-10-30T00:03:03;1005.1;;;19.9;59.25
54459;BME280;40368;49.350;8.152;2022-10-30T00:04:03;1005.1;;;19.89;59.29
54459;BME280;40368;49.350;8.152;2022-10-30T00:05:03;1005.1;;;19.87;59.33
54459;BME280;40368;49.350;8.152;2022-10-30T00:06:04;1005.1;;;19.87;59.17
54459;BME280;40368;49.350;8.152;2022-10-30T00:07:03;1005.1;;;19.85;59.53
54459;BME280;40368;49.350;8.152;2022-10-30T00:08:04;1005.1;;;19.85;59.47
54459;BME280;40368;49.350;8.152;2022-10-30T00:09:03;1005.1;;;19.86;59.6
54459;BME280;40368;49.350;8.152;2022-10-30T00:10:03;1005.1;;;19.84;59.58
54459;BME280;40368;49.350;8.152;2022-10-30T00:11:04;1005;;;19.84;59.36
54459;BME280;40368;49.350;8.152;2022-10-30T00:12:03;1005;;;19.83;59.54
54459;BME280;40368;49.350;8.152;2022-10-30T00:13:03;1005;;;19.83;59.67
54459;BME280;40368;49.350;8.152;2022-10-30T00:14:03;1005;;;19.83;59.56
54459;BME280;40368;49.350;8.152;2022-10-30T00:15:04;1005;;;19.83;59.47
54459;BME280;40368;49.350;8.152;2022-10-30T00:16:04;1005;;;19.84;59.67
54459;BME280;40368;49.350;8.152;2022-10-30T00:17:03;1005;;;19.84;59.52
54459;BME280;40368;49.350;8.152;2022-10-30T00:18:03;1005;;;19.83;59.54
54459;BME280;40368;49.350;8.152;2022-10-30T00:19:03;1005;;;19.83;59.53
54459;BME280;40368;49.350;8.152;2022-10-30T00:20:03;1005;;;19.82;59.52
54459;BME280;40368;49.350;8.152;2022-10-30T00:21:04;1005;;;19.81;59.72
54459;BME280;40368;49.350;8.152;2022-10-30T00:22:03;1005;;;19.79;59.61
54459;BME280;40368;49.350;8.152;2022-10-30T00:23:03;1004.9;;;19.79;59.7
54459;BME280;40368;49.350;8.152;2022-10-30T00:24:03;1004.9;;;19.81;59.66
54459;BME280;40368;49.350;8.152;2022-10-30T00:25:03;1005;;;19.82;59.43
54459;BME280;40368;49.350;8.152;2022-10-30T00:26:03;1004.9;;;19.83;59.59
54459;BME280;40368;49.350;8.152;2022-10-30T00:27:03;1005;;;19.82;59.65
54459;BME280;40368;49.350;8.152;2022-10-30T00:28:03;1005;;;19.82;59.63
54459;BME280;40368;49.350;8.152;2022-10-30T00:29:03;1005;;;19.81;59.46
54459;BME280;40368;49.350;8.152;2022-10-30T00:30:03;1005;;;19.81;59.77
54459;BME280;40368;49.350;8.152;2022-10-30T00:31:04;1005;;;19.81;59.58
54459;BME280;40368;49.350;8.152;2022-10-30T00:32:03;1005;;;19.79;59.48
54459;BME280;40368;49.350;8.152;2022-10-30T00:33:03;1005;;;19.79;59.62
54459;BME280;40368;49.350;8.152;2022-10-30T00:34:03;1005;;;19.79;59.67
54459;BME280;40368;49.350;8.152;2022-10-30T00:35:03;1004.9;;;19.79;59.67
54459;BME280;40368;49.350;8.152;2022-10-30T00:36:03;1004.9;;;19.79;59.66
54459;BME280;40368;49.350;8.152;2022-10-30T00:37:03;1004.9;;;19.79;59.59
54459;BME280;40368;49.350;8.152;2022-10-30T00:38:03;1005;;;19.79;59.73
54459;BME280;40368;49.350;8.152;2022-10-30T00:39:03;1004.9;;;19.79;59.69
54459;BME280;40368;49.350;8.152;2022-10-30T00:40:04;1004.9;;;19.79;59.7
54459;BME280;40368;49.350;8.152;2022-10-30T00:41:03;1005;;;19.79;59.8
54459;BME280;40368;49.350;8.152;2022-10-30T00:42:03;1004.9;;;19.79;59.81
54459;BME280;40368;49.350;8.152;2022-10-30T00:43:03;1005;;;19.78;59.52
54459;BME280;40368;49.350;8.152;2022-10-30T00:44:29;1004.9;;;19.76;59.6
54459;BME280;40368;49.350;8.152;2022-10-30T00:45:03;1004.8;;;19.74;59.59
54459;BME280;40368;49.350;8.152;2022-10-30T00:46:13;1004.9;;;19.74;59.68
54459;BME280;40368;49.350;8.152;2022-10-30T00:47:04;1004.8;;;19.73;59.63
54459;BME280;40368;49.350;8.152;2022-10-30T00:48:03;1004.8;;;19.73;59.49
54459;BME280;40368;49.350;8.152;2022-10-30T00:49:05;1004.8;;;19.73;59.69
54459;BME280;40368;49.350;8.152;2022-10-30T00:50:04;1004.8;;;19.73;59.72
54459;BME280;40368;49.350;8.152;2022-10-30T00:51:04;1004.8;;;19.74;59.66
54459;BME280;40368;49.350;8.152;2022-10-30T00:52:04;1004.9;;;19.73;59.53
54459;BME280;40368;49.350;8.152;2022-10-30T00:53:04;1004.9;;;19.71;59.62
54459;BME280;40368;49.350;8.152;2022-10-30T00:54:03;1004.9;;;19.73;59.56
54459;BME280;40368;49.350;8.152;2022-10-30T00:55:05;1004.9;;;19.73;59.67
54459;BME280;40368;49.350;8.152;2022-10-30T00:56:04;1004.8;;;19.74;59.72
54459;BME280;40368;49.350;8.152;2022-10-30T00:57:03;1004.8;;;19.74;59.54
54459;BME280;40368;49.350;8.152;2022-10-30T00:58:04;1004.8;;;19.75;59.55
54459;BME280;40368;49.350;8.152;2022-10-30T00:59:04;1004.8;;;19.73;59.77
54459;BME280;40368;49.350;8.152;2022-10-30T01:00:04;1004.8;;;19.73;59.63
54459;BME280;40368;49.350;8.152;2022-10-30T01:01:04;1004.8;;;19.7;59.79
54459;BME280;40368;49.350;8.152;2022-10-30T01:02:03;1004.8;;;19.71;59.66
54459;BME280;40368;49.350;8.152;2022-10-30T01:03:04;1004.9;;;19.73;59.7
54459;BME280;40368;49.350;8.152;2022-10-30T01:04:04;1004.8;;;19.71;59.64
54459;BME280;40368;49.350;8.152;2022-10-30T01:05:03;1004.8;;;19.7;59.71
54459;BME280;40368;49.350;8.152;2022-10-30T01:06:05;1004.8;;;19.7;59.8
54459;BME280;40368;49.350;8.152;2022-10-30T01:07:05;1004.8;;;19.7;59.79
54459;BME280;40368;49.350;8.152;2022-10-30T01:08:03;1004.8;;;19.69;59.71
54459;BME280;40368;49.350;8.152;2022-10-30T01:09:03;1004.8;;;19.7;59.81
54459;BME280;40368;49.350;8.152;2022-10-30T01:10:04;1004.8;;;19.7;59.64
54459;BME280;40368;49.350;8.152;2022-10-30T01:11:03;1004.8;;;19.7;59.6
54459;BME280;40368;49.350;8.152;2022-10-30T01:12:03;1004.8;;;19.7;59.68
54459;BME280;40368;49.350;8.152;2022-10-30T01:13:03;1004.8;;;19.7;59.59
54459;BME280;40368;49.350;8.152;2022-10-30T01:14:04;1004.7;;;19.69;59.68
54459;BME280;40368;49.350;8.152;2022-10-30T01:15:03;1004.7;;;19.68;59.6
54459;BME280;40368;49.350;8.152;2022-10-30T01:16:07;1004.7;;;19.69;59.63
54459;BME280;40368;49.350;8.152;2022-10-30T01:17:08;1004.8;;;19.68;59.77
54459;BME280;40368;49.350;8.152;2022-10-30T01:18:12;1004.8;;;19.68;59.55
54459;BME280;40368;49.350;8.152;2022-10-30T01:19:06;1004.7;;;19.65;59.62
54459;BME280;40368;49.350;8.152;2022-10-30T01:20:07;1004.7;;;19.64;59.9
54459;BME280;40368;49.350;8.152;2022-10-30T01:21:08;1004.8;;;19.65;59.8
54459;BME280;40368;49.350;8.152;2022-10-30T01:22:07;1004.7;;;19.64;59.67
54459;BME280;40368;49.350;8.152;2022-10-30T01:24:08;1004.7;;;19.61;59.81
54459;BME280;40368;49.350;8.152;2022-10-30T01:25:06;1004.8;;;19.61;59.75
54459;BME280;40368;49.350;8.152;2022-10-30T01:26:06;1004.8;;;19.6;59.79
54459;BME280;40368;49.350;8.152;2022-10-30T01:28:06;1004.7;;;19.61;59.72
54459;BME280;40368;49.350;8.152;2022-10-30T01:29:10;1004.7;;;19.6;59.61
54459;BME280;40368;49.350;8.152;2022-10-30T01:30:07;1004.7;;;19.59;59.67
54459;BME280;40368;49.350;8.152;2022-10-30T01:32:11;1004.8;;;19.57;59.74
54459;BME280;40368;49.350;8.152;2022-10-30T01:33:17;1004.7;;;19.54;59.66
54459;BME280;40368;49.350;8.152;2022-10-30T01:34:17;1004.7;;;19.54;59.95
54459;BME280;40368;49.350;8.152;2022-10-30T01:35:15;1004.7;;;19.54;59.93
54459;BME280;40368;49.350;8.152;2022-10-30T01:36:04;1004.8;;;19.51;59.43
54459;BME280;40368;49.350;8.152;2022-10-30T01:37:04;1004.7;;;19.49;59.84
54459;BME280;40368;49.350;8.152;2022-10-30T01:38:05;1004.7;;;19.48;59.57
54459;BME280;40368;49.350;8.152;2022-10-30T01:39:04;1004.7;;;19.48;59.62
54459;BME280;40368;49.350;8.152;2022-10-30T01:40:05;1004.7;;;19.49;59.6
54459;BME280;40368;49.350;8.152;2022-10-30T01:41:03;1004.7;;;19.45;59.15
54459;BME280;40368;49.350;8.152;2022-10-30T01:42:07;1004.7;;;19.44;59.81
54459;BME280;40368;49.350;8.152;2022-10-30T01:43:03;1004.7;;;19.43;59.79
54459;BME280;40368;49.350;8.152;2022-10-30T01:44:04;1004.7;;;19.45;59.67
54459;BME280;40368;49.350;8.152;2022-10-30T01:45:03;1004.7;;;19.43;59.61
54459;BME280;40368;49.350;8.152;2022-10-30T01:46:01;1004.7;;;19.42;59.65
54459;BME280;40368;49.350;8.152;2022-10-30T01:47:08;1004.7;;;19.43;59.57
54459;BME280;40368;49.350;8.152;2022-10-30T01:48:08;1004.7;;;19.44;59.65
54459;BME280;40368;49.350;8.152;2022-10-30T01:49:07;1004.6;;;19.44;59.56
54459;BME280;40368;49.350;8.152;2022-10-30T01:50:08;1004.7;;;19.44;59.51
54459;BME280;40368;49.350;8.152;2022-10-30T01:51:05;1004.6;;;19.44;59.6
54459;BME280;40368;49.350;8.152;2022-10-30T01:52:05;1004.6;;;19.44;59.71
54459;BME280;40368;49.350;8.152;2022-10-30T01:53:05;1004.6;;;19.44;59.34
54459;BME280;40368;49.350;8.152;2022-10-30T01:54:05;1004.6;;;19.44;59.58
54459;BME280;40368;49.350;8.152;2022-10-30T01:55:04;1004.6;;;19.43;59.48
54459;BME280;40368;49.350;8.152;2022-10-30T01:56:06;1004.6;;;19.43;59.58
54459;BME280;40368;49.350;8.152;2022-10-30T01:57:05;1004.6;;;19.42;59.52
54459;BME280;40368;49.350;8.152;2022-10-30T01:58:05;1004.6;;;19.4;59.51
54459;BME280;40368;49.350;8.152;2022-10-30T01:59:05;1004.6;;;19.39;59.73
54459;BME280;40368;49.350;8.152;2022-10-30T02:00:04;1004.6;;;19.4;59.71
54459;BME280;40368;49.350;8.152;2022-10-30T02:01:03;1004.6;;;19.37;59.62
54459;BME280;40368;49.350;8.152;2022-10-30T02:02:03;1004.6;;;19.39;59.64
54459;BME280;40368;49.350;8.152;2022-10-30T02:03:03;1004.6;;;19.37;59.87
54459;BME280;40368;49.350;8.152;2022-10-30T02:04:03;1004.6;;;19.35;59.85
54459;BME280;40368;49.350;8.152;2022-10-30T02:05:03;1004.5;;;19.34;59.84
54459;BME280;40368;49.350;8.152;2022-10-30T02:06:03;1004.6;;;19.34;59.87
54459;BME280;40368;49.350;8.152;2022-10-30T02:07:03;1004.6;;;19.34;59.83
54459;BME280;40368;49.350;8.152;2022-10-30T02:08:03;1004.6;;;19.33;59.72
54459;BME280;40368;49.350;8.152;2022-10-30T02:09:03;1004.7;;;19.29;60.03
54459;BME280;40368;49.350;8.152;2022-10-30T02:10:03;1004.6;;;19.29;60.06
54459;BME280;40368;49.350;8.152;2022-10-30T02:11:03;1004.7;;;19.29;60.16
54459;BME280;40368;49.350;8.152;2022-10-30T02:12:03;1004.6;;;19.28;59.92
54459;BME280;40368;49.350;8.152;2022-10-30T02:13:03;1004.6;;;19.26;60.01
54459;BME280;40368;49.350;8.152;2022-10-30T02:14:04;1004.6;;;19.27;60.06
54459;BME280;40368;49.350;8.152;2022-10-30T02:15:03;1004.6;;;19.28;60.04
54459;BME280;40368;49.350;8.152;2022-10-30T02:16:03;1004.6;;;19.28;59.88
54459;BME280;40368;49.350;8.152;2022-10-30T02:17:04;1004.6;;;19.27;60
54459;BME280;40368;49.350;8.152;2022-10-30T02:18:03;1004.6;;;19.28;59.65
54459;BME280;40368;49.350;8.152;2022-10-30T02:20:04;1004.5;;;19.26;59.83
54459;BME280;40368;49.350;8.152;2022-10-30T02:21:03;1004.6;;;19.26;59.84
54459;BME280;40368;49.350;8.152;2022-10-30T02:22:03;1004.6;;;19.25;59.71
54459;BME280;40368;49.350;8.152;2022-10-30T02:24:03;1004.6;;;19.21;59.76
54459;BME280;40368;49.350;8.152;2022-10-30T02:25:03;1004.5;;;19.2;59.84
54459;BME280;40368;49.350;8.152;2022-10-30T02:26:03;1004.6;;;19.21;59.86
54459;BME280;40368;49.350;8.152;2022-10-30T02:28:03;1004.5;;;19.21;59.67
54459;BME280;40368;49.350;8.152;2022-10-30T02:29:13;1004.6;;;19.21;59.7
54459;BME280;40368;49.350;8.152;2022-10-30T02:30:14;1004.5;;;19.2;59.74
54459;BME280;40368;49.350;8.152;2022-10-30T02:31:14;1004.5;;;19.2;59.82
54459;BME280;40368;49.350;8.152;2022-10-30T02:32:03;1004.5;;;19.2;59.67
54459;BME280;40368;49.350;8.152;2022-10-30T02:33:03;1004.5;;;19.2;59.75
54459;BME280;40368;49.350;8.152;2022-10-30T02:34:03;1004.5;;;19.19;59.61
54459;BME280;40368;49.350;8.152;2022-10-30T02:35:04;1004.5;;;19.18;59.81
54459;BME280;40368;49.350;8.152;2022-10-30T02:36:04;1004.5;;;19.18;59.77
54459;BME280;40368;49.350;8.152;2022-10-30T02:37:03;1004.5;;;19.15;59.73
54459;BME280;40368;49.350;8.152;2022-10-30T02:38:03;1004.5;;;19.16;59.7
54459;BME280;40368;49.350;8.152;2022-10-30T02:39:03;1004.6;;;19.12;59.54
54459;BME280;40368;49.350;8.152;2022-10-30T02:40:03;1004.6;;;19.08;59.97
54459;BME280;40368;49.350;8.152;2022-10-30T02:41:03;1004.6;;;19.08;60
54459;BME280;40368;49.350;8.152;2022-10-30T02:42:03;1004.5;;;19.11;59.94
54459;BME280;40368;49.350;8.152;2022-10-30T02:43:03;1004.5;;;19.11;60.01
54459;BME280;40368;49.350;8.152;2022-10-30T02:44:04;1004.5;;;19.1;59.97
54459;BME280;40368;49.350;8.152;2022-10-30T02:45:03;1004.5;;;19.11;59.91
54459;BME280;40368;49.350;8.152;2022-10-30T02:46:03;1004.5;;;19.11;59.81
54459;BME280;40368;49.350;8.152;2022-10-30T02:47:03;1004.5;;;19.12;59.85
54459;BME280;40368;49.350;8.152;2022-10-30T02:48:03;1004.5;;;19.12;59.83
54459;BME280;40368;49.350;8.152;2022-10-30T02:49:03;1004.5;;;19.12;59.88
54459;BME280;40368;49.350;8.152;2022-10-30T02:50:03;1004.5;;;19.11;59.75
54459;BME280;40368;49.350;8.152;2022-10-30T02:51:03;1004.5;;;19.06;59.79
54459;BME280;40368;49.350;8.152;2022-10-30T02:52:05;1004.5;;;19.04;59.79
54459;BME280;40368;49.350;8.152;2022-10-30T02:53:03;1004.5;;;19.04;59.68
54459;BME280;40368;49.350;8.152;2022-10-30T02:54:03;1004.5;;;19.07;59.89
54459;BME280;40368;49.350;8.152;2022-10-30T02:55:03;1004.5;;;19.06;59.96
54459;BME280;40368;49.350;8.152;2022-10-30T02:56:04;1004.4;;;19.06;59.78
54459;BME280;40368;49.350;8.152;2022-10-30T02:57:03;1004.4;;;19.06;59.86
54459;BME280;40368;49.350;8.152;2022-10-30T02:58:03;1004.4;;;19.08;59.76
54459;BME280;40368;49.350;8.152;2022-10-30T02:59:03;1004.4;;;19.08;59.58
54459;BME280;40368;49.350;8.152;2022-10-30T03:00:03;1004.4;;;19.08;59.7
54459;BME280;40368;49.350;8.152;2022-10-30T03:01:04;1004.5;;;19.06;59.77
54459;BME280;40368;49.350;8.152;2022-10-30T03:02:04;1004.5;;;19.06;59.62
54459;BME280;40368;49.350;8.152;2022-10-30T03:03:03;1004.5;;;19.04;59.69
54459;BME280;40368;49.350;8.152;2022-10-30T03:04:03;1004.4;;;19.04;59.73
54459;BME280;40368;49.350;8.152;2022-10-30T03:05:03;1004.5;;;19.04;60.03
54459;BME280;40368;49.350;8.152;2022-10-30T03:06:04;1004.5;;;19.04;59.68
54459;BME280;40368;49.350;8.152;2022-10-30T03:07:03;1004.5;;;19.04;59.7
54459;BME280;40368;49.350;8.152;2022-10-30T03:08:03;1004.5;;;19.04;59.9
54459;BME280;40368;49.350;8.152;2022-10-30T03:09:03;1004.5;;;19.03;59.79
54459;BME280;40368;49.350;8.152;2022-10-30T03:10:03;1004.4;;;19.03;59.52
54459;BME280;40368;49.350;8.152;2022-10-30T03:11:06;1004.5;;;19.02;59.54
54459;BME280;40368;49.350;8.152;2022-10-30T03:12:03;1004.5;;;19;59.73
54459;BME280;40368;49.350;8.152;2022-10-30T03:13:03;1004.5;;;18.99;59.79
54459;BME280;40368;49.350;8.152;2022-10-30T03:14:03;1004.4;;;18.96;59.7
54459;BME280;40368;49.350;8.152;2022-10-30T03:15:03;1004.5;;;18.95;59.69
54459;BME280;40368;49.350;8.152;2022-10-30T03:16:04;1004.5;;;18.94;59.6
54459;BME280;40368;49.350;8.152;2022-10-30T03:17:03;1004.5;;;18.94;59.75
54459;BME280;40368;49.350;8.152;2022-10-30T03:18:03;1004.4;;;18.93;59.86
54459;BME280;40368;49.350;8.152;2022-10-30T03:20:03;1004.5;;;18.94;59.99
54459;BME280;40368;49.350;8.152;2022-10-30T03:21:04;1004.4;;;18.94;59.82
54459;BME280;40368;49.350;8.152;2022-10-30T03:22:04;1004.4;;;18.93;59.61
54459;BME280;40368;49.350;8.152;2022-10-30T03:24:03;1004.4;;;18.93;59.6
54459;BME280;40368;49.350;8.152;2022-10-30T03:25:03;1004.4;;;18.92;59.81
54459;BME280;40368;49.350;8.152;2022-10-30T03:26:03;1004.5;;;18.91;59.67
54459;BME280;40368;49.350;8.152;2022-10-30T03:28:03;1004.4;;;18.93;59.75
54459;BME280;40368;49.350;8.152;2022-10-30T03:29:13;1004.5;;;18.92;59.45
54459;BME280;40368;49.350;8.152;2022-10-30T03:30:14;1004.5;;;18.87;59.53
54459;BME280;40368;49.350;8.152;2022-10-30T03:31:14;1004.5;;;18.85;59.51
54459;BME280;40368;49.350;8.152;2022-10-30T03:32:07;1004.6;;;18.83;59.68
54459;BME280;40368;49.350;8.152;2022-10-30T03:33:03;1004.5;;;18.82;59.79
54459;BME280;40368;49.350;8.152;2022-10-30T03:34:03;1004.5;;;18.81;59.59
54459;BME280;40368;49.350;8.152;2022-10-30T03:35:03;1004.5;;;18.82;59.84
54459;BME280;40368;49.350;8.152;2022-10-30T03:36:03;1004.5;;;18.83;59.53
54459;BME280;40368;49.350;8.152;2022-10-30T03:37:03;1004.5;;;18.82;59.61
54459;BME280;40368;49.350;8.152;2022-10-30T03:38:03;1004.5;;;18.82;59.67
54459;BME280;40368;49.350;8.152;2022-10-30T03:39:03;1004.5;;;18.82;59.83
54459;BME280;40368;49.350;8.152;2022-10-30T03:40:03;1004.5;;;18.82;59.69
54459;BME280;40368;49.350;8.152;2022-10-30T03:41:04;1004.5;;;18.81;59.79
54459;BME280;40368;49.350;8.152;2022-10-30T03:42:04;1004.5;;;18.79;59.62
54459;BME280;40368;49.350;8.152;2022-10-30T03:43:03;1004.5;;;18.79;59.73
54459;BME280;40368;49.350;8.152;2022-10-30T03:44:03;1004.5;;;18.79;59.51
54459;BME280;40368;49.350;8.152;2022-10-30T03:45:04;1004.5;;;18.77;59.58
54459;BME280;40368;49.350;8.152;2022-10-30T03:46:03;1004.5;;;18.77;59.6
54459;BME280;40368;49.350;8.152;2022-10-30T03:47:03;1004.5;;;18.77;59.83
54459;BME280;40368;49.350;8.152;2022-10-30T03:48:04;1004.5;;;18.77;59.64
54459;BME280;40368;49.350;8.152;2022-10-30T03:49:03;1004.6;;;18.77;59.71
54459;BME280;40368;49.350;8.152;2022-10-30T03:50:03;1004.6;;;18.74;59.65
54459;BME280;40368;49.350;8.152;2022-10-30T03:51:03;1004.6;;;18.71;59.65
54459;BME280;40368;49.350;8.152;2022-10-30T03:52:03;1004.6;;;18.7;59.89
54459;BME280;40368;49.350;8.152;2022-10-30T03:53:03;1004.6;;;18.7;59.71
54459;BME280;40368;49.350;8.152;2022-10-30T03:54:03;1004.6;;;18.7;59.73
54459;BME280;40368;49.350;8.152;2022-10-30T03:55:04;1004.6;;;18.7;59.8
54459;BME280;40368;49.350;8.152;2022-10-30T03:56:03;1004.6;;;18.69;59.91
54459;BME280;40368;49.350;8.152;2022-10-30T03:57:03;1004.6;;;18.68;59.34
54459;BME280;40368;49.350;8.152;2022-10-30T03:58:03;1004.6;;;18.65;59.62
54459;BME280;40368;49.350;8.152;2022-10-30T03:59:03;1004.6;;;18.66;59.87
54459;BME280;40368;49.350;8.152;2022-10-30T04:00:04;1004.6;;;18.66;59.91
54459;BME280;40368;49.350;8.152;2022-10-30T04:01:04;1004.6;;;18.67;59.91
54459;BME280;40368;49.350;8.152;2022-10-30T04:02:03;1004.6;;;18.65;59.86
54459;BME280;40368;49.350;8.152;2022-10-30T04:03:05;1004.6;;;18.62;59.67
54459;BME280;40368;49.350;8.152;2022-10-30T04:04:03;1004.6;;;18.61;59.89
54459;BME280;40368;49.350;8.152;2022-10-30T04:05:03;1004.6;;;18.58;59.78
54459;BME280;40368;49.350;8.152;2022-10-30T04:06:03;1004.6;;;18.59;59.87
54459;BME280;40368;49.350;8.152;2022-10-30T04:07:03;1004.6;;;18.58;59.91
54459;BME280;40368;49.350;8.152;2022-10-30T04:08:04;1004.6;;;18.57;59.96
54459;BME280;40368;49.350;8.152;2022-10-30T04:09:03;1004.6;;;18.57;59.9
54459;BME280;40368;49.350;8.152;2022-10-30T04:10:03;1004.6;;;18.58;59.9
54459;BME280;40368;49.350;8.152;2022-10-30T04:11:03;1004.6;;;18.57;59.89
54459;BME280;40368;49.350;8.152;2022-10-30T04:12:03;1004.6;;;18.56;59.97
54459;BME280;40368;49.350;8.152;2022-10-30T04:13:04;1004.6;;;18.54;59.98
54459;BME280;40368;49.350;8.152;2022-10-30T04:14:03;1004.6;;;18.54;60.04
54459;BME280;40368;49.350;8.152;2022-10-30T04:15:04;1004.6;;;18.54;59.99
54459;BME280;40368;49.350;8.152;2022-10-30T04:16:03;1004.5;;;18.56;59.93
54459;BME280;40368;49.350;8.152;2022-10-30T04:17:03;1004.6;;;18.56;59.87
54459;BME280;40368;49.350;8.152;2022-10-30T04:18:03;1004.6;;;18.56;59.97
54459;BME280;40368;49.350;8.152;2022-10-30T04:20:03;1004.6;;;18.54;59.87
54459;BME280;40368;49.350;8.152;2022-10-30T04:21:03;1004.6;;;18.54;59.87
54459;BME280;40368;49.350;8.152;2022-10-30T04:22:03;1004.6;;;18.54;59.91
54459;BME280;40368;49.350;8.152;2022-10-30T04:24:03;1004.6;;;18.54;59.76
54459;BME280;40368;49.350;8.152;2022-10-30T04:25:03;1004.5;;;18.53;59.83
54459;BME280;40368;49.350;8.152;2022-10-30T04:26:03;1004.6;;;18.51;59.81
54459;BME280;40368;49.350;8.152;2022-10-30T04:28:03;1004.6;;;18.49;60.04
54459;BME280;40368;49.350;8.152;2022-10-30T04:29:13;1004.6;;;18.48;59.98
54459;BME280;40368;49.350;8.152;2022-10-30T04:30:14;1004.6;;;18.49;59.94
54459;BME280;40368;49.350;8.152;2022-10-30T04:31:14;1004.6;;;18.48;60.05
54459;BME280;40368;49.350;8.152;2022-10-30T04:32:03;1004.7;;;18.49;59.51
54459;BME280;40368;49.350;8.152;2022-10-30T04:33:04;1004.6;;;18.48;59.89
54459;BME280;40368;49.350;8.152;2022-10-30T04:34:03;1004.6;;;18.48;59.94
54459;BME280;40368;49.350;8.152;2022-10-30T04:35:03;1004.6;;;18.49;59.93
54459;BME280;40368;49.350;8.152;2022-10-30T04:36:03;1004.6;;;18.49;59.92
54459;BME280;40368;49.350;8.152;2022-10-30T04:37:03;1004.7;;;18.49;59.95
54459;BME280;40368;49.350;8.152;2022-10-30T04:38:04;1004.6;;;18.49;59.81
54459;BME280;40368;49.350;8.152;2022-10-30T04:39:03;1004.6;;;18.5;59.66
54459;BME280;40368;49.350;8.152;2022-10-30T04:40:04;1004.6;;;18.5;59.84
54459;BME280;40368;49.350;8.152;2022-10-30T04:41:14;1004.6;;;18.51;59.57
54459;BME280;40368;49.350;8.152;2022-10-30T04:42:13;1004.6;;;18.5;59.77
54459;BME280;40368;49.350;8.152;2022-10-30T04:43:14;1004.7;;;18.49;59.62
54459;BME280;40368;49.350;8.152;2022-10-30T04:44:03;1004.7;;;18.49;59.7
54459;BME280;40368;49.350;8.152;2022-10-30T04:45:03;1004.7;;;18.49;59.7
54459;BME280;40368;49.350;8.152;2022-10-30T04:46:04;1004.7;;;18.49;59.49
54459;BME280;40368;49.350;8.152;2022-10-30T04:47:03;1004.6;;;18.46;59.67
54459;BME280;40368;49.350;8.152;2022-10-30T04:48:04;1004.7;;;18.46;59.63
54459;BME280;40368;49.350;8.152;2022-10-30T04:49:03;1004.6;;;18.46;59.65
54459;BME280;40368;49.350;8.152;2022-10-30T04:50:03;1004.7;;;18.45;59.49
54459;BME280;40368;49.350;8.152;2022-10-30T04:51:03;1004.7;;;18.46;59.49
54459;BME280;40368;49.350;8.152;2022-10-30T04:52:03;1004.7;;;18.46;59.32
54459;BME280;40368;49.350;8.152;2022-10-30T04:53:04;1004.7;;;18.45;59.17
54459;BME280;40368;49.350;8.152;2022-10-30T04:54:03;1004.7;;;18.46;59.37
54459;BME280;40368;49.350;8.152;2022-10-30T04:55:03;1004.7;;;18.48;59.36
54459;BME280;40368;49.350;8.152;2022-10-30T04:56:03;1004.7;;;18.48;59.02
54459;BME280;40368;49.350;8.152;2022-10-30T04:57:03;1004.7;;;18.45;59.04
54459;BME280;40368;49.350;8.152;2022-10-30T04:58:03;1004.8;;;18.44;59.04
54459;BME280;40368;49.350;8.152;2022-10-30T04:59:03;1004.7;;;18.43;59.04
54459;BME280;40368;49.350;8.152;2022-10-30T05:00:03;1004.8;;;18.41;58.97
54459;BME280;40368;49.350;8.152;2022-10-30T05:01:04;1004.8;;;18.37;58.94
54459;BME280;40368;49.350;8.152;2022-10-30T05:02:03;1004.7;;;18.36;58.88
54459;BME280;40368;49.350;8.152;2022-10-30T05:03:03;1004.7;;;18.32;58.86
54459;BME280;40368;49.350;8.152;2022-10-30T05:04:03;1004.7;;;18.31;59.12
54459;BME280;40368;49.350;8.152;2022-10-30T05:05:03;1004.6;;;18.29;59.14
54459;BME280;40368;49.350;8.152;2022-10-30T05:06:05;1004.7;;;18.29;59.27
54459;BME280;40368;49.350;8.152;2022-10-30T05:07:03;1004.7;;;18.27;59.07
54459;BME280;40368;49.350;8.152;2022-10-30T05:08:03;1004.8;;;18.26;59.1
54459;BME280;40368;49.350;8.152;2022-10-30T05:09:03;1004.8;;;18.25;59.44
54459;BME280;40368;49.350;8.152;2022-10-30T05:10:03;1004.8;;;18.27;59.41
54459;BME280;40368;49.350;8.152;2022-10-30T05:11:04;1004.8;;;18.29;59.33
54459;BME280;40368;49.350;8.152;2022-10-30T05:12:03;1004.7;;;18.29;59.59
54459;BME280;40368;49.350;8.152;2022-10-30T05:13:03;1004.8;;;18.31;59.43
54459;BME280;40368;49.350;8.152;2022-10-30T05:14:03;1004.8;;;18.29;59.32
54459;BME280;40368;49.350;8.152;2022-10-30T05:15:03;1004.7;;;18.29;59.36
54459;BME280;40368;49.350;8.152;2022-10-30T05:16:04;1004.8;;;18.31;59.53
54459;BME280;40368;49.350;8.152;2022-10-30T05:17:03;1004.8;;;18.31;59.3
54459;BME280;40368;49.350;8.152;2022-10-30T05:18:03;1004.8;;;18.29;58.99
54459;BME280;40368;49.350;8.152;2022-10-30T05:19:04;1004.7;;;18.28;59.1
54459;BME280;40368;49.350;8.152;2022-10-30T05:20:04;1004.7;;;18.23;59.25
54459;BME280;40368;49.350;8.152;2022-10-30T05:21:03;1004.8;;;18.23;59.19
54459;BME280;40368;49.350;8.152;2022-10-30T05:22:03;1004.7;;;18.21;59.28
54459;BME280;40368;49.350;8.152;2022-10-30T05:23:03;1004.7;;;18.21;59.47
54459;BME280;40368;49.350;8.152;2022-10-30T05:24:03;1004.7;;;18.2;59.44
54459;BME280;40368;49.350;8.152;2022-10-30T05:25:03;1004.7;;;18.2;59.37
54459;BME280;40368;49.350;8.152;2022-10-30T05:26:03;1004.7;;;18.2;59.1
54459;BME280;40368;49.350;8.152;2022-10-30T05:27:04;1004.6;;;18.18;59.38
54459;BME280;40368;49.350;8.152;2022-10-30T05:28:04;1004.6;;;18.17;59.52
54459;BME280;40368;49.350;8.152;2022-10-30T05:29:03;1004.7;;;18.16;59.59
54459;BME280;40368;49.350;8.152;2022-10-30T05:30:04;1004.7;;;18.16;59.49
54459;BME280;40368;49.350;8.152;2022-10-30T05:32:03;1004.7;;;18.11;59.32
54459;BME280;40368;49.350;8.152;2022-10-30T05:33:04;1004.6;;;18.1;59.63
54459;BME280;40368;49.350;8.152;2022-10-30T05:34:03;1004.7;;;18.1;59.69
54459;BME280;40368;49.350;8.152;2022-10-30T05:36:04;1004.7;;;18.09;59.81
54459;BME280;40368;49.350;8.152;2022-10-30T05:37:03;1004.7;;;18.1;59.69
54459;BME280;40368;49.350;8.152;2022-10-30T05:38:05;1004.7;;;18.08;59.42
54459;BME280;40368;49.350;8.152;2022-10-30T05:40:04;1004.7;;;18.06;59.79
54459;BME280;40368;49.350;8.152;2022-10-30T05:41:14;1004.7;;;18.06;59.84
54459;BME280;40368;49.350;8.152;2022-10-30T05:42:14;1004.7;;;18.07;59.82
54459;BME280;40368;49.350;8.152;2022-10-30T05:43:13;1004.7;;;18.07;59.79